sensor_id;sensor_type;location;lat;lon;timestamp;P1;durP1;ratioP1;P2;durP2;ratioP2
60935;SDS011;46804;51.786;19.520;2022-08-19T00:02:42;11.43;;;7.80;;
60935;SDS011;46804;51.786;19.520;2022-08-19T00:06:44;9.82;;;8.40;;
60935;SDS011;46804;51.786;19.520;2022-08-19T00:10:45;15.88;;;8.68;;
60935;SDS011;46804;51.786;19.520;2022-08-19T00:14:46;14.27;;;8.57;;
60935;SDS011;46804;51.786;19.520;2022-08-19T00:18:47;12.70;;;8.18;;
60935;SDS011;46804;51.786;19.520;2022-08-19T00:22:48;13.00;;;8.20;;
60935;SDS011;46804;51.786;19.520;2022-08-19T00:26:49;11.50;;;8.70;;
60935;SDS011;46804;51.786;19.520;2022-08-19T00:30:50;11.30;;;8.38;;
60935;SDS011;46804;51.786;19.520;2022-08-19T00:34:52;11.50;;;8.20;;
60935;SDS011;46804;51.786;19.520;2022-08-19T00:38:53;14.27;;;8.80;;
60935;SDS011;46804;51.786;19.520;2022-08-19T00:42:54;12.57;;;8.57;;
60935;SDS011;46804;51.786;19.520;2022-08-19T00:46:56;13.35;;;9.38;;
60935;SDS011;46804;51.786;19.520;2022-08-19T00:50:59;16.52;;;8.98;;
60935;SDS011;46804;51.786;19.520;2022-08-19T00:55:00;12.45;;;8.43;;
60935;SDS011;46804;51.786;19.520;2022-08-19T00:59:02;13.70;;;9.02;;
60935;SDS011;46804;51.786;19.520;2022-08-19T01:03:10;10.68;;;8.40;;
60935;SDS011;46804;51.786;19.520;2022-08-19T01:07:15;12.23;;;8.98;;
60935;SDS011;46804;51.786;19.520;2022-08-19T01:11:16;13.63;;;8.82;;
60935;SDS011;46804;51.786;19.520;2022-08-19T01:15:19;11.77;;;8.75;;
60935;SDS011;46804;51.786;19.520;2022-08-19T01:19:31;13.48;;;8.80;;
60935;SDS011;46804;51.786;19.520;2022-08-19T01:23:35;12.98;;;8.77;;
60935;SDS011;46804;51.786;19.520;2022-08-19T01:27:46;14.98;;;9.52;;
60935;SDS011;46804;51.786;19.520;2022-08-19T01:31:49;13.63;;;8.50;;
60935;SDS011;46804;51.786;19.520;2022-08-19T01:35:52;14.13;;;8.73;;
60935;SDS011;46804;51.786;19.520;2022-08-19T01:39:52;13.73;;;9.23;;
60935;SDS011;46804;51.786;19.520;2022-08-19T01:43:53;13.07;;;9.45;;
60935;SDS011;46804;51.786;19.520;2022-08-19T01:47:54;16.75;;;9.05;;
60935;SDS011;46804;51.786;19.520;2022-08-19T01:51:55;13.00;;;8.50;;
60935;SDS011;46804;51.786;19.520;2022-08-19T01:55:56;12.10;;;9.55;;
60935;SDS011;46804;51.786;19.520;2022-08-19T01:59:57;11.10;;;8.35;;
60935;SDS011;46804;51.786;19.520;2022-08-19T02:03:59;13.57;;;8.98;;
60935;SDS011;46804;51.786;19.520;2022-08-19T02:08:00;20.42;;;10.05;;
60935;SDS011;46804;51.786;19.520;2022-08-19T02:12:01;15.48;;;8.95;;
60935;SDS011;46804;51.786;19.520;2022-08-19T02:16:02;13.82;;;8.57;;
60935;SDS011;46804;51.786;19.520;2022-08-19T02:20:02;11.27;;;8.80;;
60935;SDS011;46804;51.786;19.520;2022-08-19T02:24:04;10.48;;;8.48;;
60935;SDS011;46804;51.786;19.520;2022-08-19T02:28:05;11.13;;;8.43;;
60935;SDS011;46804;51.786;19.520;2022-08-19T02:32:06;15.15;;;8.85;;
60935;SDS011;46804;51.786;19.520;2022-08-19T02:36:08;15.07;;;9.23;;
60935;SDS011;46804;51.786;19.520;2022-08-19T02:40:10;16.42;;;9.00;;
60935;SDS011;46804;51.786;19.520;2022-08-19T02:44:11;13.82;;;9.15;;
60935;SDS011;46804;51.786;19.520;2022-08-19T02:48:12;11.57;;;8.82;;
60935;SDS011;46804;51.786;19.520;2022-08-19T02:52:13;11.98;;;8.93;;
60935;SDS011;46804;51.786;19.520;2022-08-19T02:56:14;14.77;;;9.30;;
60935;SDS011;46804;51.786;19.520;2022-08-19T03:00:15;13.55;;;8.82;;
60935;SDS011;46804;51.786;19.520;2022-08-19T03:04:17;13.75;;;8.77;;
60935;SDS011;46804;51.786;19.520;2022-08-19T03:08:19;13.82;;;9.35;;
60935;SDS011;46804;51.786;19.520;2022-08-19T03:12:19;14.57;;;9.15;;
60935;SDS011;46804;51.786;19.520;2022-08-19T03:16:21;13.80;;;8.88;;
60935;SDS011;46804;51.786;19.520;2022-08-19T03:20:23;11.52;;;8.40;;
60935;SDS011;46804;51.786;19.520;2022-08-19T03:24:23;20.55;;;9.40;;
60935;SDS011;46804;51.786;19.520;2022-08-19T03:28:24;13.75;;;8.23;;
60935;SDS011;46804;51.786;19.520;2022-08-19T03:32:25;13.18;;;8.60;;
60935;SDS011;46804;51.786;19.520;2022-08-19T03:36:26;13.18;;;8.80;;
60935;SDS011;46804;51.786;19.520;2022-08-19T03:40:27;11.90;;;9.20;;
60935;SDS011;46804;51.786;19.520;2022-08-19T03:44:30;13.73;;;9.43;;
60935;SDS011;46804;51.786;19.520;2022-08-19T03:48:32;21.27;;;12.33;;
60935;SDS011;46804;51.786;19.520;2022-08-19T03:52:33;17.27;;;8.93;;
60935;SDS011;46804;51.786;19.520;2022-08-19T03:56:35;12.65;;;8.25;;
60935;SDS011;46804;51.786;19.520;2022-08-19T04:00:37;12.82;;;8.45;;
60935;SDS011;46804;51.786;19.520;2022-08-19T04:04:38;12.93;;;8.60;;
60935;SDS011;46804;51.786;19.520;2022-08-19T04:08:40;10.90;;;7.83;;
60935;SDS011;46804;51.786;19.520;2022-08-19T04:12:41;11.45;;;8.18;;
60935;SDS011;46804;51.786;19.520;2022-08-19T04:16:42;16.15;;;8.60;;
60935;SDS011;46804;51.786;19.520;2022-08-19T04:20:45;11.25;;;7.80;;
60935;SDS011;46804;51.786;19.520;2022-08-19T04:28:48;14.73;;;7.57;;
60935;SDS011;46804;51.786;19.520;2022-08-19T04:32:50;14.77;;;8.60;;
60935;SDS011;46804;51.786;19.520;2022-08-19T04:36:51;14.77;;;8.52;;
60935;SDS011;46804;51.786;19.520;2022-08-19T04:40:56;12.07;;;7.63;;
60935;SDS011;46804;51.786;19.520;2022-08-19T04:45:15;9.80;;;7.35;;
60935;SDS011;46804;51.786;19.520;2022-08-19T04:49:16;19.52;;;8.52;;
60935;SDS011;46804;51.786;19.520;2022-08-19T04:53:18;15.20;;;7.95;;
60935;SDS011;46804;51.786;19.520;2022-08-19T04:57:19;15.23;;;7.40;;
60935;SDS011;46804;51.786;19.520;2022-08-19T05:01:21;13.18;;;7.90;;
60935;SDS011;46804;51.786;19.520;2022-08-19T05:05:28;14.27;;;7.90;;
60935;SDS011;46804;51.786;19.520;2022-08-19T05:09:29;15.00;;;7.32;;
60935;SDS011;46804;51.786;19.520;2022-08-19T05:13:29;11.85;;;7.20;;
60935;SDS011;46804;51.786;19.520;2022-08-19T05:17:30;13.50;;;7.93;;
60935;SDS011;46804;51.786;19.520;2022-08-19T05:21:31;9.38;;;6.68;;
60935;SDS011;46804;51.786;19.520;2022-08-19T05:25:51;16.15;;;7.60;;
60935;SDS011;46804;51.786;19.520;2022-08-19T05:29:53;10.23;;;7.18;;
60935;SDS011;46804;51.786;19.520;2022-08-19T05:33:53;10.10;;;7.40;;
60935;SDS011;46804;51.786;19.520;2022-08-19T05:37:54;9.80;;;7.20;;
60935;SDS011;46804;51.786;19.520;2022-08-19T05:41:56;15.50;;;7.53;;
60935;SDS011;46804;51.786;19.520;2022-08-19T05:45:59;12.75;;;7.65;;
60935;SDS011;46804;51.786;19.520;2022-08-19T05:49:59;12.10;;;7.82;;
60935;SDS011;46804;51.786;19.520;2022-08-19T05:54:02;13.10;;;7.25;;
60935;SDS011;46804;51.786;19.520;2022-08-19T05:58:04;15.05;;;7.20;;
60935;SDS011;46804;51.786;19.520;2022-08-19T06:02:07;12.90;;;7.43;;
60935;SDS011;46804;51.786;19.520;2022-08-19T06:06:08;10.57;;;6.97;;
60935;SDS011;46804;51.786;19.520;2022-08-19T06:10:11;9.77;;;7.05;;
60935;SDS011;46804;51.786;19.520;2022-08-19T06:14:15;10.63;;;7.07;;
60935;SDS011;46804;51.786;19.520;2022-08-19T06:18:20;13.15;;;7.70;;
60935;SDS011;46804;51.786;19.520;2022-08-19T06:22:22;12.63;;;7.20;;
60935;SDS011;46804;51.786;19.520;2022-08-19T06:26:23;13.43;;;7.05;;
60935;SDS011;46804;51.786;19.520;2022-08-19T06:30:25;13.43;;;7.80;;
60935;SDS011;46804;51.786;19.520;2022-08-19T06:34:26;10.25;;;7.38;;
60935;SDS011;46804;51.786;19.520;2022-08-19T06:38:28;10.10;;;7.10;;
60935;SDS011;46804;51.786;19.520;2022-08-19T06:42:29;13.13;;;6.70;;
60935;SDS011;46804;51.786;19.520;2022-08-19T06:46:30;12.10;;;7.07;;
60935;SDS011;46804;51.786;19.520;2022-08-19T06:50:31;11.10;;;7.22;;
60935;SDS011;46804;51.786;19.520;2022-08-19T06:54:31;9.63;;;6.93;;
60935;SDS011;46804;51.786;19.520;2022-08-19T06:58:32;8.77;;;6.68;;
60935;SDS011;46804;51.786;19.520;2022-08-19T07:02:32;10.02;;;6.97;;
60935;SDS011;46804;51.786;19.520;2022-08-19T07:06:33;12.18;;;6.68;;
60935;SDS011;46804;51.786;19.520;2022-08-19T07:10:34;11.60;;;7.03;;
60935;SDS011;46804;51.786;19.520;2022-08-19T07:14:37;12.05;;;7.95;;
60935;SDS011;46804;51.786;19.520;2022-08-19T07:18:38;14.82;;;7.60;;
60935;SDS011;46804;51.786;19.520;2022-08-19T07:22:40;13.95;;;7.60;;
60935;SDS011;46804;51.786;19.520;2022-08-19T07:26:41;11.27;;;7.32;;
60935;SDS011;46804;51.786;19.520;2022-08-19T07:30:43;14.33;;;7.23;;
60935;SDS011;46804;51.786;19.520;2022-08-19T07:34:43;11.40;;;7.25;;
60935;SDS011;46804;51.786;19.520;2022-08-19T07:38:46;10.63;;;7.50;;
60935;SDS011;46804;51.786;19.520;2022-08-19T07:46:50;11.70;;;6.68;;
60935;SDS011;46804;51.786;19.520;2022-08-19T07:50:57;10.23;;;7.50;;
60935;SDS011;46804;51.786;19.520;2022-08-19T07:55:02;9.05;;;6.40;;
60935;SDS011;46804;51.786;19.520;2022-08-19T07:59:04;12.77;;;7.30;;
60935;SDS011;46804;51.786;19.520;2022-08-19T08:03:05;12.15;;;7.10;;
60935;SDS011;46804;51.786;19.520;2022-08-19T08:07:06;10.40;;;6.93;;
60935;SDS011;46804;51.786;19.520;2022-08-19T08:11:25;13.98;;;7.22;;
60935;SDS011;46804;51.786;19.520;2022-08-19T08:15:26;9.35;;;6.63;;
60935;SDS011;46804;51.786;19.520;2022-08-19T08:19:27;11.68;;;7.40;;
60935;SDS011;46804;51.786;19.520;2022-08-19T08:23:28;11.67;;;6.93;;
60935;SDS011;46804;51.786;19.520;2022-08-19T08:27:30;12.27;;;6.70;;
60935;SDS011;46804;51.786;19.520;2022-08-19T08:31:31;12.73;;;7.50;;
60935;SDS011;46804;51.786;19.520;2022-08-19T08:35:32;10.27;;;7.15;;
60935;SDS011;46804;51.786;19.520;2022-08-19T08:39:33;10.80;;;6.95;;
60935;SDS011;46804;51.786;19.520;2022-08-19T08:43:38;10.10;;;6.68;;
60935;SDS011;46804;51.786;19.520;2022-08-19T08:47:44;9.32;;;6.25;;
60935;SDS011;46804;51.786;19.520;2022-08-19T08:51:48;11.55;;;6.82;;
60935;SDS011;46804;51.786;19.520;2022-08-19T08:55:53;12.77;;;6.45;;
60935;SDS011;46804;51.786;19.520;2022-08-19T08:59:53;13.20;;;6.35;;
60935;SDS011;46804;51.786;19.520;2022-08-19T09:03:57;13.57;;;6.15;;
60935;SDS011;46804;51.786;19.520;2022-08-19T09:08:00;9.43;;;5.95;;
60935;SDS011;46804;51.786;19.520;2022-08-19T09:16:34;11.82;;;6.10;;
60935;SDS011;46804;51.786;19.520;2022-08-19T09:20:36;9.82;;;6.30;;
60935;SDS011;46804;51.786;19.520;2022-08-19T09:24:37;9.02;;;6.15;;
60935;SDS011;46804;51.786;19.520;2022-08-19T09:28:38;9.27;;;6.32;;
60935;SDS011;46804;51.786;19.520;2022-08-19T09:32:42;9.30;;;5.97;;
60935;SDS011;46804;51.786;19.520;2022-08-19T09:36:44;8.27;;;5.68;;
60935;SDS011;46804;51.786;19.520;2022-08-19T09:40:44;8.38;;;6.03;;
60935;SDS011;46804;51.786;19.520;2022-08-19T09:44:45;10.25;;;6.07;;
60935;SDS011;46804;51.786;19.520;2022-08-19T09:48:46;10.32;;;6.60;;
60935;SDS011;46804;51.786;19.520;2022-08-19T09:52:48;11.50;;;6.50;;
60935;SDS011;46804;51.786;19.520;2022-08-19T09:56:49;13.57;;;6.18;;
60935;SDS011;46804;51.786;19.520;2022-08-19T10:00:50;10.02;;;6.28;;
60935;SDS011;46804;51.786;19.520;2022-08-19T10:04:51;11.90;;;5.38;;
60935;SDS011;46804;51.786;19.520;2022-08-19T10:09:10;11.23;;;6.90;;
60935;SDS011;46804;51.786;19.520;2022-08-19T10:13:11;7.80;;;5.82;;
60935;SDS011;46804;51.786;19.520;2022-08-19T10:17:12;8.65;;;6.28;;
60935;SDS011;46804;51.786;19.520;2022-08-19T10:21:13;10.52;;;5.93;;
60935;SDS011;46804;51.786;19.520;2022-08-19T10:25:25;10.27;;;6.22;;
60935;SDS011;46804;51.786;19.520;2022-08-19T10:29:27;9.82;;;5.78;;
60935;SDS011;46804;51.786;19.520;2022-08-19T10:33:28;9.75;;;6.35;;
60935;SDS011;46804;51.786;19.520;2022-08-19T10:37:31;11.65;;;6.00;;
60935;SDS011;46804;51.786;19.520;2022-08-19T10:41:33;8.10;;;5.68;;
60935;SDS011;46804;51.786;19.520;2022-08-19T10:45:36;7.55;;;5.63;;
60935;SDS011;46804;51.786;19.520;2022-08-19T10:49:37;10.23;;;5.95;;
60935;SDS011;46804;51.786;19.520;2022-08-19T10:53:57;11.48;;;5.90;;
60935;SDS011;46804;51.786;19.520;2022-08-19T10:57:58;8.90;;;5.50;;
60935;SDS011;46804;51.786;19.520;2022-08-19T11:02:00;12.13;;;5.53;;
60935;SDS011;46804;51.786;19.520;2022-08-19T11:06:03;10.60;;;5.97;;
60935;SDS011;46804;51.786;19.520;2022-08-19T11:10:06;10.98;;;5.32;;
60935;SDS011;46804;51.786;19.520;2022-08-19T11:14:12;9.32;;;5.85;;
60935;SDS011;46804;51.786;19.520;2022-08-19T11:18:18;7.97;;;5.45;;
60935;SDS011;46804;51.786;19.520;2022-08-19T11:22:19;13.10;;;6.60;;
60935;SDS011;46804;51.786;19.520;2022-08-19T11:26:20;12.32;;;5.88;;
60935;SDS011;46804;51.786;19.520;2022-08-19T11:30:21;10.68;;;5.32;;
60935;SDS011;46804;51.786;19.520;2022-08-19T11:34:22;10.32;;;6.00;;
60935;SDS011;46804;51.786;19.520;2022-08-19T11:38:25;11.15;;;5.80;;
60935;SDS011;46804;51.786;19.520;2022-08-19T11:42:26;11.63;;;5.95;;
60935;SDS011;46804;51.786;19.520;2022-08-19T11:46:46;8.10;;;5.88;;
60935;SDS011;46804;51.786;19.520;2022-08-19T11:50:48;8.63;;;5.53;;
60935;SDS011;46804;51.786;19.520;2022-08-19T11:54:52;6.80;;;5.45;;
60935;SDS011;46804;51.786;19.520;2022-08-19T11:58:53;14.73;;;5.67;;
60935;SDS011;46804;51.786;19.520;2022-08-19T12:02:56;11.07;;;5.97;;
60935;SDS011;46804;51.786;19.520;2022-08-19T12:06:57;8.52;;;5.50;;
60935;SDS011;46804;51.786;19.520;2022-08-19T12:10:57;7.78;;;5.68;;
60935;SDS011;46804;51.786;19.520;2022-08-19T12:15:01;8.38;;;5.30;;
60935;SDS011;46804;51.786;19.520;2022-08-19T12:19:03;15.50;;;5.63;;
60935;SDS011;46804;51.786;19.520;2022-08-19T12:23:05;11.40;;;5.93;;
60935;SDS011;46804;51.786;19.520;2022-08-19T12:27:08;10.25;;;5.32;;
60935;SDS011;46804;51.786;19.520;2022-08-19T12:31:09;11.40;;;5.60;;
60935;SDS011;46804;51.786;19.520;2022-08-19T12:35:12;8.27;;;5.35;;
60935;SDS011;46804;51.786;19.520;2022-08-19T12:39:12;11.20;;;5.55;;
60935;SDS011;46804;51.786;19.520;2022-08-19T12:43:13;11.85;;;5.18;;
60935;SDS011;46804;51.786;19.520;2022-08-19T12:47:15;8.57;;;5.45;;
60935;SDS011;46804;51.786;19.520;2022-08-19T12:51:17;10.10;;;5.70;;
60935;SDS011;46804;51.786;19.520;2022-08-19T12:55:19;11.57;;;5.25;;
60935;SDS011;46804;51.786;19.520;2022-08-19T12:59:20;12.60;;;5.68;;
60935;SDS011;46804;51.786;19.520;2022-08-19T13:03:21;9.68;;;5.80;;
60935;SDS011;46804;51.786;19.520;2022-08-19T13:07:29;10.63;;;5.72;;
60935;SDS011;46804;51.786;19.520;2022-08-19T13:11:31;9.80;;;5.55;;
60935;SDS011;46804;51.786;19.520;2022-08-19T13:15:38;10.75;;;5.65;;
60935;SDS011;46804;51.786;19.520;2022-08-19T13:19:41;10.95;;;5.70;;
60935;SDS011;46804;51.786;19.520;2022-08-19T13:23:41;8.90;;;5.20;;
60935;SDS011;46804;51.786;19.520;2022-08-19T13:27:42;12.25;;;5.95;;
60935;SDS011;46804;51.786;19.520;2022-08-19T13:31:43;10.03;;;5.20;;
60935;SDS011;46804;51.786;19.520;2022-08-19T13:36:03;12.73;;;5.63;;
60935;SDS011;46804;51.786;19.520;2022-08-19T13:40:08;10.15;;;5.40;;
60935;SDS011;46804;51.786;19.520;2022-08-19T13:44:21;9.75;;;5.22;;
60935;SDS011;46804;51.786;19.520;2022-08-19T13:48:23;10.57;;;5.38;;
60935;SDS011;46804;51.786;19.520;2022-08-19T13:52:26;17.02;;;5.93;;
60935;SDS011;46804;51.786;19.520;2022-08-19T13:56:26;8.90;;;5.37;;
60935;SDS011;46804;51.786;19.520;2022-08-19T14:00:28;9.45;;;5.22;;
60935;SDS011;46804;51.786;19.520;2022-08-19T14:04:30;8.75;;;5.35;;
60935;SDS011;46804;51.786;19.520;2022-08-19T14:08:31;13.35;;;6.30;;
60935;SDS011;46804;51.786;19.520;2022-08-19T14:12:33;9.88;;;5.50;;
60935;SDS011;46804;51.786;19.520;2022-08-19T14:16:33;15.70;;;6.15;;
60935;SDS011;46804;51.786;19.520;2022-08-19T14:20:34;15.27;;;5.40;;
60935;SDS011;46804;51.786;19.520;2022-08-19T14:24:38;7.93;;;5.72;;
60935;SDS011;46804;51.786;19.520;2022-08-19T14:28:40;10.70;;;5.50;;
60935;SDS011;46804;51.786;19.520;2022-08-19T14:32:42;10.30;;;5.60;;
60935;SDS011;46804;51.786;19.520;2022-08-19T14:36:45;12.10;;;5.30;;
60935;SDS011;46804;51.786;19.520;2022-08-19T14:40:46;11.95;;;5.30;;
60935;SDS011;46804;51.786;19.520;2022-08-19T14:44:46;11.37;;;4.63;;
60935;SDS011;46804;51.786;19.520;2022-08-19T14:48:47;9.40;;;4.20;;
60935;SDS011;46804;51.786;19.520;2022-08-19T14:52:48;10.13;;;3.90;;
60935;SDS011;46804;51.786;19.520;2022-08-19T14:56:49;8.77;;;4.10;;
60935;SDS011;46804;51.786;19.520;2022-08-19T15:00:50;10.98;;;4.57;;
60935;SDS011;46804;51.786;19.520;2022-08-19T15:04:51;14.55;;;5.35;;
60935;SDS011;46804;51.786;19.520;2022-08-19T15:08:52;18.17;;;4.57;;
60935;SDS011;46804;51.786;19.520;2022-08-19T15:12:53;15.03;;;4.70;;
60935;SDS011;46804;51.786;19.520;2022-08-19T15:16:54;14.02;;;4.13;;
60935;SDS011;46804;51.786;19.520;2022-08-19T15:20:55;11.38;;;4.95;;
60935;SDS011;46804;51.786;19.520;2022-08-19T15:24:56;19.52;;;4.43;;
60935;SDS011;46804;51.786;19.520;2022-08-19T15:28:58;9.85;;;4.50;;
60935;SDS011;46804;51.786;19.520;2022-08-19T15:37:00;13.90;;;5.05;;
60935;SDS011;46804;51.786;19.520;2022-08-19T15:41:02;10.93;;;4.93;;
60935;SDS011;46804;51.786;19.520;2022-08-19T15:45:22;14.00;;;5.05;;
60935;SDS011;46804;51.786;19.520;2022-08-19T15:49:28;11.98;;;4.82;;
60935;SDS011;46804;51.786;19.520;2022-08-19T15:53:29;14.15;;;5.25;;
60935;SDS011;46804;51.786;19.520;2022-08-19T15:57:29;12.75;;;4.68;;
60935;SDS011;46804;51.786;19.520;2022-08-19T16:01:30;13.43;;;5.22;;
60935;SDS011;46804;51.786;19.520;2022-08-19T16:05:49;17.05;;;5.43;;
60935;SDS011;46804;51.786;19.520;2022-08-19T16:10:08;10.90;;;5.40;;
60935;SDS011;46804;51.786;19.520;2022-08-19T16:14:09;9.38;;;5.57;;
60935;SDS011;46804;51.786;19.520;2022-08-19T16:18:09;10.98;;;5.88;;
60935;SDS011;46804;51.786;19.520;2022-08-19T16:22:10;8.52;;;5.57;;
60935;SDS011;46804;51.786;19.520;2022-08-19T16:26:11;14.50;;;6.00;;
60935;SDS011;46804;51.786;19.520;2022-08-19T16:30:13;14.13;;;5.60;;
60935;SDS011;46804;51.786;19.520;2022-08-19T16:34:14;13.88;;;6.80;;
60935;SDS011;46804;51.786;19.520;2022-08-19T16:38:15;12.73;;;6.15;;
60935;SDS011;46804;51.786;19.520;2022-08-19T16:42:15;15.60;;;7.15;;
60935;SDS011;46804;51.786;19.520;2022-08-19T16:46:16;17.35;;;7.38;;
60935;SDS011;46804;51.786;19.520;2022-08-19T16:50:17;12.23;;;7.00;;
60935;SDS011;46804;51.786;19.520;2022-08-19T16:54:19;11.75;;;7.30;;
60935;SDS011;46804;51.786;19.520;2022-08-19T16:58:20;11.93;;;7.18;;
60935;SDS011;46804;51.786;19.520;2022-08-19T17:02:21;13.57;;;7.30;;
60935;SDS011;46804;51.786;19.520;2022-08-19T17:11:38;12.70;;;7.90;;
60935;SDS011;46804;51.786;19.520;2022-08-19T17:20:51;16.00;;;8.00;;
60935;SDS011;46804;51.786;19.520;2022-08-19T17:25:15;10.88;;;7.05;;
60935;SDS011;46804;51.786;19.520;2022-08-19T17:29:31;12.60;;;7.60;;
60935;SDS011;46804;51.786;19.520;2022-08-19T17:34:05;12.65;;;7.55;;
60935;SDS011;46804;51.786;19.520;2022-08-19T17:38:37;11.60;;;7.55;;
60935;SDS011;46804;51.786;19.520;2022-08-19T17:43:56;16.90;;;7.90;;
60935;SDS011;46804;51.786;19.520;2022-08-19T17:48:26;12.55;;;7.13;;
60935;SDS011;46804;51.786;19.520;2022-08-19T17:53:01;10.15;;;6.80;;
60935;SDS011;46804;51.786;19.520;2022-08-19T17:57:24;11.27;;;7.13;;
60935;SDS011;46804;51.786;19.520;2022-08-19T18:01:38;12.27;;;7.00;;
60935;SDS011;46804;51.786;19.520;2022-08-19T18:21:26;10.77;;;8.10;;
60935;SDS011;46804;51.786;19.520;2022-08-19T18:25:55;12.95;;;7.53;;
60935;SDS011;46804;51.786;19.520;2022-08-19T18:30:18;9.27;;;7.47;;
60935;SDS011;46804;51.786;19.520;2022-08-19T18:34:34;12.35;;;7.38;;
60935;SDS011;46804;51.786;19.520;2022-08-19T18:39:03;15.25;;;7.25;;
60935;SDS011;46804;51.786;19.520;2022-08-19T18:43:33;12.82;;;7.18;;
60935;SDS011;46804;51.786;19.520;2022-08-19T18:47:58;11.95;;;7.40;;
60935;SDS011;46804;51.786;19.520;2022-08-19T18:52:19;9.55;;;7.18;;
60935;SDS011;46804;51.786;19.520;2022-08-19T18:56:31;12.82;;;7.50;;
60935;SDS011;46804;51.786;19.520;2022-08-19T19:05:30;12.27;;;7.03;;
60935;SDS011;46804;51.786;19.520;2022-08-19T19:09:31;10.40;;;7.28;;
60935;SDS011;46804;51.786;19.520;2022-08-19T19:13:35;10.15;;;7.68;;
60935;SDS011;46804;51.786;19.520;2022-08-19T19:17:56;10.50;;;7.60;;
60935;SDS011;46804;51.786;19.520;2022-08-19T19:22:03;8.93;;;7.53;;
60935;SDS011;46804;51.786;19.520;2022-08-19T19:26:07;10.70;;;8.10;;
60935;SDS011;46804;51.786;19.520;2022-08-19T19:30:26;11.10;;;8.23;;
60935;SDS011;46804;51.786;19.520;2022-08-19T19:34:32;13.60;;;7.65;;
60935;SDS011;46804;51.786;19.520;2022-08-19T19:38:35;10.77;;;7.63;;
60935;SDS011;46804;51.786;19.520;2022-08-19T19:42:36;14.68;;;8.25;;
60935;SDS011;46804;51.786;19.520;2022-08-19T19:46:43;12.45;;;7.60;;
60935;SDS011;46804;51.786;19.520;2022-08-19T19:51:08;12.30;;;7.88;;
60935;SDS011;46804;51.786;19.520;2022-08-19T19:55:19;12.50;;;8.00;;
60935;SDS011;46804;51.786;19.520;2022-08-19T19:59:44;12.33;;;9.07;;
60935;SDS011;46804;51.786;19.520;2022-08-19T20:04:05;12.10;;;8.45;;
60935;SDS011;46804;51.786;19.520;2022-08-19T20:08:14;11.77;;;7.68;;
60935;SDS011;46804;51.786;19.520;2022-08-19T20:12:43;13.05;;;8.52;;
60935;SDS011;46804;51.786;19.520;2022-08-19T20:16:45;12.63;;;8.13;;
60935;SDS011;46804;51.786;19.520;2022-08-19T20:20:49;14.43;;;8.38;;
60935;SDS011;46804;51.786;19.520;2022-08-19T20:24:54;12.07;;;8.15;;
60935;SDS011;46804;51.786;19.520;2022-08-19T20:28:59;14.65;;;8.98;;
60935;SDS011;46804;51.786;19.520;2022-08-19T20:33:01;18.33;;;10.60;;
60935;SDS011;46804;51.786;19.520;2022-08-19T20:41:47;14.23;;;9.52;;
60935;SDS011;46804;51.786;19.520;2022-08-19T20:45:48;15.43;;;9.18;;
60935;SDS011;46804;51.786;19.520;2022-08-19T20:49:48;11.55;;;8.10;;
60935;SDS011;46804;51.786;19.520;2022-08-19T20:53:50;12.90;;;8.50;;
60935;SDS011;46804;51.786;19.520;2022-08-19T20:57:51;10.65;;;8.40;;
60935;SDS011;46804;51.786;19.520;2022-08-19T21:01:52;13.68;;;8.43;;
60935;SDS011;46804;51.786;19.520;2022-08-19T21:05:53;16.23;;;8.93;;
60935;SDS011;46804;51.786;19.520;2022-08-19T21:09:55;13.77;;;7.45;;
60935;SDS011;46804;51.786;19.520;2022-08-19T21:13:55;22.40;;;7.80;;
60935;SDS011;46804;51.786;19.520;2022-08-19T21:17:57;17.27;;;6.43;;
60935;SDS011;46804;51.786;19.520;2022-08-19T21:21:58;13.95;;;5.72;;
60935;SDS011;46804;51.786;19.520;2022-08-19T21:26:00;10.80;;;5.65;;
60935;SDS011;46804;51.786;19.520;2022-08-19T21:30:01;13.02;;;6.28;;
60935;SDS011;46804;51.786;19.520;2022-08-19T21:34:02;12.77;;;6.35;;
60935;SDS011;46804;51.786;19.520;2022-08-19T21:38:04;11.85;;;6.32;;
60935;SDS011;46804;51.786;19.520;2022-08-19T21:42:05;12.48;;;6.22;;
60935;SDS011;46804;51.786;19.520;2022-08-19T21:46:05;16.33;;;6.32;;
60935;SDS011;46804;51.786;19.520;2022-08-19T21:50:07;13.45;;;6.30;;
60935;SDS011;46804;51.786;19.520;2022-08-19T21:54:08;14.43;;;6.00;;
60935;SDS011;46804;51.786;19.520;2022-08-19T21:58:09;10.98;;;6.75;;
60935;SDS011;46804;51.786;19.520;2022-08-19T22:02:11;12.43;;;6.82;;
60935;SDS011;46804;51.786;19.520;2022-08-19T22:06:12;15.50;;;6.63;;
60935;SDS011;46804;51.786;19.520;2022-08-19T22:10:13;14.38;;;7.53;;
60935;SDS011;46804;51.786;19.520;2022-08-19T22:14:13;10.90;;;6.82;;
60935;SDS011;46804;51.786;19.520;2022-08-19T22:18:14;13.38;;;6.30;;
60935;SDS011;46804;51.786;19.520;2022-08-19T22:22:20;9.83;;;6.40;;
60935;SDS011;46804;51.786;19.520;2022-08-19T22:26:23;10.65;;;6.13;;
60935;SDS011;46804;51.786;19.520;2022-08-19T22:30:24;8.68;;;5.95;;
60935;SDS011;46804;51.786;19.520;2022-08-19T22:34:25;13.15;;;5.90;;
60935;SDS011;46804;51.786;19.520;2022-08-19T22:38:26;12.05;;;6.18;;
60935;SDS011;46804;51.786;19.520;2022-08-19T22:42:26;10.80;;;6.03;;
60935;SDS011;46804;51.786;19.520;2022-08-19T22:46:27;13.93;;;5.85;;
60935;SDS011;46804;51.786;19.520;2022-08-19T22:50:27;11.25;;;6.10;;
60935;SDS011;46804;51.786;19.520;2022-08-19T22:54:28;10.15;;;5.50;;
60935;SDS011;46804;51.786;19.520;2022-08-19T22:58:29;13.38;;;5.80;;
60935;SDS011;46804;51.786;19.520;2022-08-19T23:02:31;12.48;;;7.03;;
60935;SDS011;46804;51.786;19.520;2022-08-19T23:06:37;10.57;;;5.65;;
60935;SDS011;46804;51.786;19.520;2022-08-19T23:10:38;10.65;;;5.82;;
60935;SDS011;46804;51.786;19.520;2022-08-19T23:14:39;11.93;;;5.68;;
60935;SDS011;46804;51.786;19.520;2022-08-19T23:18:40;13.90;;;6.30;;
60935;SDS011;46804;51.786;19.520;2022-08-19T23:22:42;9.35;;;6.25;;
60935;SDS011;46804;51.786;19.520;2022-08-19T23:26:47;12.73;;;6.38;;
60935;SDS011;46804;51.786;19.520;2022-08-19T23:31:07;11.55;;;6.45;;
60935;SDS011;46804;51.786;19.520;2022-08-19T23:35:08;12.98;;;6.68;;
60935;SDS011;46804;51.786;19.520;2022-08-19T23:39:09;11.13;;;6.95;;
60935;SDS011;46804;51.786;19.520;2022-08-19T23:43:09;15.05;;;7.32;;
60935;SDS011;46804;51.786;19.520;2022-08-19T23:47:10;16.13;;;8.05;;
60935;SDS011;46804;51.786;19.520;2022-08-19T23:51:12;11.32;;;7.72;;
60935;SDS011;46804;51.786;19.520;2022-08-19T23:55:16;14.52;;;8.57;;
60935;SDS011;46804;51.786;19.520;2022-08-19T23:59:18;15.95;;;8.60;;
